Time;durP1;ratioP1;P1;durP2;ratioP2;P2;SDS_P1;SDS_P2;PMS_P1;PMS_P2;Temp;Humidity;BMP_temperature;BMP_pressure;BME280_temperature;BME280_humidity;BME280_pressure;Samples;Min_cycle;Max_cycle;Signal;HPM_P1;HPM_P2
2021/05/30 00:01:30;;;;;;;;;;;10.20;85.30;;;;;;5028271;28;20063;-68
2021/05/30 00:03:56;;;;;;;1.20;0.40;;;10.10;85.70;;;;;;5027576;28;19905;-68
2021/05/30 00:06:21;;;;;;;1.42;0.70;;;10.00;86.00;;;;;;5027418;28;20117;-68
2021/05/30 00:08:47;;;;;;;;;;;10.00;86.20;;;;;;5028042;28;20029;-67
2021/05/30 00:11:13;;;;;;;0.93;0.60;;;9.90;86.30;;;;;;5027298;28;19905;-67
2021/05/30 00:13:39;;;;;;;;;;;9.80;86.40;;;;;;5027597;28;20032;-67
2021/05/30 00:16:05;;;;;;;1.27;0.63;;;9.80;86.60;;;;;;5026082;28;20058;-67
2021/05/30 00:18:30;;;;;;;4.10;0.60;;;9.70;86.60;;;;;;5027593;28;20167;-67
2021/05/30 00:20:56;;;;;;;;;;;9.70;86.60;;;;;;5026562;28;20030;-67
2021/05/30 00:23:22;;;;;;;1.70;0.80;;;9.60;86.40;;;;;;5026926;28;20392;-67
2021/05/30 00:25:47;;;;;;;1.60;0.98;;;9.60;86.20;;;;;;5026552;28;20033;-68
2021/05/30 00:28:13;;;;;;;1.23;0.60;;;9.60;86.30;;;;;;5026266;28;20048;-68
2021/05/30 00:30:38;;;;;;;;;;;9.60;86.30;;;;;;5027872;28;20515;-68
2021/05/30 00:33:04;;;;;;;1.00;0.60;;;9.50;86.50;;;;;;5025277;28;20384;-68
2021/05/30 00:35:30;;;;;;;;;;;9.50;86.40;;;;;;5027490;28;20091;-68
2021/05/30 00:37:55;;;;;;;1.00;0.55;;;9.50;86.30;;;;;;5027222;28;20390;-67
2021/05/30 00:40:22;;;;;;;2.03;0.65;;;9.50;86.00;;;;;;5026540;28;20029;-68
2021/05/30 00:42:48;;;;;;;2.58;0.80;;;9.40;85.90;;;;;;5026818;28;20033;-68
2021/05/30 00:45:14;;;;;;;1.23;0.70;;;9.40;86.80;;;;;;5026614;28;20615;-67
2021/05/30 00:47:40;;;;;;;;;;;9.40;86.30;;;;;;5027208;28;20080;-67
2021/05/30 00:50:07;;;;;;;1.52;0.75;;;9.40;86.50;;;;;;5026972;28;19909;-67
2021/05/30 00:52:32;;;;;;;3.92;0.65;;;9.40;86.60;;;;;;5026897;28;20029;-67
2021/05/30 00:55:00;;;;;;;;;;;9.40;86.90;;;;;;5026664;28;20042;-67
2021/05/30 00:57:25;;;;;;;;;;;9.40;87.10;;;;;;5026902;28;19909;-67
2021/05/30 00:59:51;;;;;;;6.82;0.90;;;9.40;86.90;;;;;;5026201;28;19905;-66
2021/05/30 01:02:17;;;;;;;;;;;9.30;86.70;;;;;;5027323;28;20017;-67
2021/05/30 01:04:42;;;;;;;1.75;0.70;;;9.40;86.10;;;;;;5026416;28;19916;-67
2021/05/30 01:07:08;;;;;;;;;;;9.40;85.90;;;;;;5026959;28;20026;-67
2021/05/30 01:09:33;;;;;;;1.52;0.88;;;9.40;86.50;;;;;;5026740;28;19908;-66
2021/05/30 01:12:03;;;;;;;2.08;0.88;;;9.50;86.50;;;;;;5025418;28;20116;-67
2021/05/30 01:14:29;;;;;;;1.42;0.90;;;9.50;86.50;;;;;;5026540;28;20806;-67
2021/05/30 01:16:55;;;;;;;;;;;9.50;85.80;;;;;;5026676;28;20517;-67
2021/05/30 01:19:26;;;;;;;1.33;0.70;;;9.50;86.10;;;;;;5026231;28;19909;-67
2021/05/30 01:21:53;;;;;;;1.67;0.80;;;9.60;85.90;;;;;;5025351;28;20075;-67
2021/05/30 01:24:19;;;;;;;1.30;0.80;;;9.60;85.60;;;;;;5026160;28;20153;-67
2021/05/30 01:26:44;;;;;;;;;;;9.70;85.70;;;;;;5024854;28;20741;-67
2021/05/30 01:29:10;;;;;;;1.70;0.60;;;9.80;87.20;;;;;;5026220;28;20445;-67
2021/05/30 01:31:36;;;;;;;;;;;9.80;86.80;;;;;;5026453;28;20029;-67
2021/05/30 01:34:01;;;;;;;2.00;0.65;;;9.90;87.00;;;;;;5026133;28;19917;-67
2021/05/30 01:36:27;;;;;;;;;;;9.90;87.10;;;;;;5026561;28;20061;-67
2021/05/30 01:38:53;;;;;;;1.85;0.60;;;9.90;86.90;;;;;;5025803;28;19913;-67
2021/05/30 01:41:18;;;;;;;;;;;9.90;86.50;;;;;;5025861;28;20033;-67
2021/05/30 01:43:44;;;;;;;1.63;0.82;;;10.00;86.30;;;;;;5024939;28;20361;-67
2021/05/30 01:46:09;;;;;;;;;;;10.00;86.30;;;;;;5025130;28;20045;-67
2021/05/30 01:48:35;;;;;;;1.17;0.70;;;10.00;87.00;;;;;;5026100;28;19944;-67
2021/05/30 01:51:01;;;;;;;;;;;10.00;86.80;;;;;;5026175;28;20497;-67
2021/05/30 01:53:40;;;;;;;1.67;1.08;;;10.10;86.90;;;;;;5025969;28;19909;-68
2021/05/30 01:58:32;;;;;;;;;;;10.10;86.50;;;;;;5026096;28;20025;-67
2021/05/30 02:00:59;;;;;;;2.53;1.27;;;10.20;87.20;;;;;;5024702;28;19951;-68
2021/05/30 02:03:27;;;;;;;6.22;1.40;;;10.20;87.20;;;;;;5025698;28;20580;-68
2021/05/30 02:05:54;;;;;;;3.35;1.30;;;10.20;86.80;;;;;;5025985;28;20562;-68
2021/05/30 02:08:20;;;;;;;3.22;1.38;;;10.30;86.50;;;;;;5024755;28;20029;-67
2021/05/30 02:10:46;;;;;;;3.58;1.35;;;10.30;86.40;;;;;;5025534;28;20083;-67
2021/05/30 02:13:12;;;;;;;;;;;10.30;86.60;;;;;;5026315;28;20033;-67
2021/05/30 02:15:38;;;;;;;4.22;1.63;;;10.30;86.90;;;;;;5026043;28;20405;-67
2021/05/30 02:18:05;;;;;;;2.40;1.35;;;10.30;86.90;;;;;;5025996;28;20498;-68
2021/05/30 02:20:36;;;;;;;3.40;1.35;;;10.30;86.90;;;;;;5025457;28;20029;-68
2021/05/30 02:23:02;;;;;;;2.80;1.60;;;10.30;86.90;;;;;;5026106;28;20079;-68
2021/05/30 02:25:28;;;;;;;3.47;1.27;;;10.30;87.00;;;;;;5029204;28;20044;-67
2021/05/30 02:27:54;;;;;;;;;;;10.30;87.00;;;;;;5028919;28;20095;-67
2021/05/30 02:30:21;;;;;;;3.45;1.00;;;10.30;87.20;;;;;;5029241;28;20405;-68
2021/05/30 02:32:47;;;;;;;4.85;1.30;;;10.20;87.10;;;;;;5029182;28;20031;-68
2021/05/30 02:35:14;;;;;;;12.70;1.20;;;10.20;87.40;;;;;;5029016;28;20071;-67
2021/05/30 02:37:40;;;;;;;2.42;1.08;;;10.10;87.80;;;;;;5029398;28;20048;-68
2021/05/30 02:40:06;;;;;;;;;;;10.10;88.10;;;;;;5029321;28;20494;-67
2021/05/30 02:42:32;;;;;;;2.42;0.80;;;10.20;88.90;;;;;;5029083;28;19909;-68
2021/05/30 02:44:58;;;;;;;2.22;1.13;;;10.20;88.00;;;;;;5029207;28;20029;-68
2021/05/30 02:47:23;;;;;;;;;;;10.20;88.40;;;;;;5029651;28;20113;-68
2021/05/30 02:49:49;;;;;;;1.63;0.93;;;10.20;89.50;;;;;;5029311;28;20023;-68
2021/05/30 02:52:14;;;;;;;;;;;10.20;89.20;;;;;;5027822;28;20026;-68
2021/05/30 02:54:40;;;;;;;2.10;0.88;;;10.10;89.90;;;;;;5027380;28;20381;-67
2021/05/30 02:57:06;;;;;;;;;;;10.10;89.00;;;;;;5029001;28;20140;-68
2021/05/30 02:59:31;;;;;;;2.10;0.90;;;10.20;89.10;;;;;;5028851;28;19905;-67
2021/05/30 03:01:57;;;;;;;2.58;0.70;;;10.20;87.80;;;;;;5028667;28;20417;-68
2021/05/30 03:04:23;;;;;;;1.70;0.70;;;10.30;87.20;;;;;;5029029;28;20788;-67
2021/05/30 03:06:48;;;;;;;;;;;10.30;86.60;;;;;;5028782;28;20500;-68
2021/05/30 03:09:14;;;;;;;3.45;0.73;;;10.40;86.60;;;;;;5028149;28;20285;-68
2021/05/30 03:11:39;;;;;;;2.67;0.80;;;10.40;86.20;;;;;;5028771;28;20034;-67
2021/05/30 03:14:05;;;;;;;1.92;0.80;;;10.40;85.90;;;;;;5028326;28;20037;-68
2021/05/30 03:16:31;;;;;;;1.83;0.95;;;10.50;86.10;;;;;;5028675;28;20116;-68
2021/05/30 03:18:56;;;;;;;;;;;10.40;86.30;;;;;;5028770;28;20029;-68
2021/05/30 03:21:22;;;;;;;1.45;0.60;;;10.40;87.50;;;;;;5028492;28;19915;-67
2021/05/30 03:23:47;;;;;;;;;;;10.40;87.20;;;;;;5027115;28;20044;-67
2021/05/30 03:26:13;;;;;;;2.08;0.95;;;10.40;87.50;;;;;;5028615;28;19909;-69
2021/05/30 03:28:39;;;;;;;;;;;10.40;87.50;;;;;;5028546;28;20041;-68
2021/05/30 03:31:05;;;;;;;1.30;0.70;;;10.40;88.00;;;;;;5028284;28;19912;-68
2021/05/30 03:33:31;;;;;;;5.47;0.85;;;10.40;87.40;;;;;;5026561;28;20036;-68
2021/05/30 03:36:00;;;;;;;;;;;10.50;87.60;;;;;;5028505;28;20139;-68
2021/05/30 03:38:28;;;;;;;1.85;0.90;;;10.50;87.70;;;;;;5026198;28;20022;-68
2021/05/30 03:41:05;;;;;;;1.52;0.82;;;10.60;87.30;;;;;;5028119;28;20052;-68
2021/05/30 03:43:31;;;;;;;2.13;0.90;;;10.70;87.80;;;;;;5027715;28;20029;-68
2021/05/30 03:45:57;;;;;;;;;;;10.80;86.60;;;;;;5028721;28;20025;-68
2021/05/30 03:48:23;;;;;;;1.30;0.80;;;10.90;86.00;;;;;;5028174;28;19963;-68
2021/05/30 03:50:51;;;;;;;;;;;11.00;85.50;;;;;;5028702;28;20533;-67
2021/05/30 03:53:20;;;;;;;3.60;0.90;;;11.10;85.20;;;;;;5026136;28;20400;-68
2021/05/30 03:55:47;;;;;;;1.02;0.55;;;11.20;84.90;;;;;;5028171;28;20108;-68
2021/05/30 03:58:13;;;;;;;1.25;0.80;;;11.40;84.20;;;;;;5027537;28;20021;-67
2021/05/30 04:00:40;;;;;;;1.90;0.75;;;11.50;83.70;;;;;;5027397;28;20037;-68
2021/05/30 04:03:07;;;;;;;2.05;0.93;;;11.60;83.70;;;;;;5027709;28;20035;-67
2021/05/30 04:05:34;;;;;;;2.25;0.80;;;11.80;82.20;;;;;;5027845;28;20338;-67
2021/05/30 04:07:59;;;;;;;1.48;0.70;;;11.90;82.10;;;;;;5027633;28;20022;-67
2021/05/30 04:10:25;;;;;;;;;;;12.00;82.10;;;;;;5027491;28;20055;-68
2021/05/30 04:12:51;;;;;;;8.75;0.70;;;12.10;81.70;;;;;;5027474;28;20011;-68
2021/05/30 04:15:17;;;;;;;;;;;12.20;81.10;;;;;;5027640;28;20037;-67
2021/05/30 04:17:43;;;;;;;4.28;0.80;;;12.40;81.10;;;;;;5027428;28;20400;-67
2021/05/30 04:20:12;;;;;;;2.67;0.90;;;12.50;81.90;;;;;;5027451;28;20044;-67
2021/05/30 04:22:39;;;;;;;2.70;1.30;;;12.70;82.20;;;;;;5027245;28;20029;-68
2021/05/30 04:25:06;;;;;;;3.15;1.00;;;12.90;81.80;;;;;;5026792;28;20029;-67
2021/05/30 04:27:31;;;;;;;2.03;1.08;;;13.00;81.50;;;;;;5027159;28;20029;-68
2021/05/30 04:29:57;;;;;;;;;;;13.00;81.60;;;;;;5027187;28;20057;-66
2021/05/30 04:32:22;;;;;;;3.42;1.10;;;13.10;81.20;;;;;;5027395;28;19913;-68
2021/05/30 04:34:48;;;;;;;;;;;13.10;80.90;;;;;;5027189;28;20067;-67
2021/05/30 04:37:14;;;;;;;1.58;0.80;;;13.20;80.70;;;;;;5027346;28;19934;-68
2021/05/30 04:39:40;;;;;;;1.60;0.80;;;13.20;80.60;;;;;;5026680;28;20037;-68
2021/05/30 04:42:07;;;;;;;;;;;13.30;80.20;;;;;;5027291;28;20100;-67
2021/05/30 04:44:36;;;;;;;2.42;0.70;;;13.40;79.90;;;;;;5026872;28;19916;-68
2021/05/30 04:47:02;;;;;;;3.00;0.95;;;13.40;79.80;;;;;;5026327;28;20041;-66
2021/05/30 04:49:27;;;;;;;;;;;13.50;78.60;;;;;;5027023;28;20029;-68
2021/05/30 04:51:53;;;;;;;2.22;0.82;;;13.60;78.70;;;;;;5026989;28;20666;-69
2021/05/30 04:54:19;;;;;;;;;;;13.60;79.40;;;;;;5027068;28;20414;-68
2021/05/30 04:56:44;;;;;;;2.63;1.05;;;13.80;78.60;;;;;;5026371;28;19959;-69
2021/05/30 04:59:10;;;;;;;;;;;13.80;78.60;;;;;;5025885;28;20033;-68
2021/05/30 05:01:36;;;;;;;4.35;0.73;;;13.90;78.40;;;;;;5025184;28;20737;-69
2021/05/30 05:04:02;;;;;;;;;;;14.00;76.60;;;;;;5027043;28;20036;-69
2021/05/30 05:06:28;;;;;;;1.90;0.70;;;14.10;74.70;;;;;;5026801;28;19908;-68
2021/05/30 05:08:53;;;;;;;4.93;0.80;;;14.20;74.80;;;;;;5025565;28;20401;-69
2021/05/30 05:11:19;;;;;;;;;;;14.30;75.10;;;;;;5027133;28;20029;-68
2021/05/30 05:13:45;;;;;;;2.55;0.80;;;14.30;72.30;;;;;;5026690;28;20297;-68
2021/05/30 05:16:10;;;;;;;;;;;14.40;72.80;;;;;;5026666;28;20045;-68
2021/05/30 05:18:36;;;;;;;1.30;0.73;;;14.40;73.50;;;;;;5026344;28;19909;-68
2021/05/30 05:21:03;;;;;;;;;;;14.50;73.90;;;;;;5026999;28;20029;-67
2021/05/30 05:23:29;;;;;;;;;;;14.50;75.10;;;;;;5026011;28;20699;-66
2021/05/30 05:25:57;;;;;;;2.83;0.90;;;14.60;74.20;;;;;;5026083;28;20500;-67
2021/05/30 05:28:24;;;;;;;2.08;0.60;;;14.50;74.40;;;;;;5025826;28;20102;-67
2021/05/30 05:30:52;;;;;;;3.15;1.20;;;14.50;74.80;;;;;;5024956;28;20053;-68
2021/05/30 05:33:18;;;;;;;1.42;0.80;;;14.40;75.40;;;;;;5026202;28;20033;-68
2021/05/30 05:35:44;;;;;;;1.50;0.60;;;14.40;76.70;;;;;;5025562;28;20034;-67
2021/05/30 05:38:10;;;;;;;;;;;14.40;76.80;;;;;;5025364;28;20033;-67
2021/05/30 05:40:36;;;;;;;1.48;0.65;;;14.40;77.70;;;;;;5025242;28;19956;-68
2021/05/30 05:43:01;;;;;;;;;;;14.30;77.20;;;;;;5025854;28;20572;-67
2021/05/30 05:45:27;;;;;;;1.80;0.60;;;14.30;76.90;;;;;;5025129;28;20366;-68
2021/05/30 05:47:53;;;;;;;;;;;14.40;77.00;;;;;;5024467;28;20502;-67
2021/05/30 05:50:21;;;;;;;1.55;0.73;;;14.50;77.80;;;;;;5023783;28;20010;-68
2021/05/30 05:52:48;;;;;;;4.32;0.73;;;14.50;77.40;;;;;;5024877;28;20034;-67
2021/05/30 05:55:14;;;;;;;1.45;0.80;;;14.60;78.00;;;;;;5024834;28;20092;-68
2021/05/30 05:57:41;;;;;;;3.70;0.70;;;14.60;78.00;;;;;;5026574;28;20927;-67
2021/05/30 06:00:09;;;;;;;3.40;0.80;;;14.60;78.40;;;;;;5029622;28;20505;-68
2021/05/30 06:02:35;;;;;;;1.25;0.65;;;14.60;79.00;;;;;;5030064;28;20482;-69
2021/05/30 06:05:01;;;;;;;4.30;0.85;;;14.60;79.30;;;;;;5028415;28;20025;-68
2021/05/30 06:07:26;;;;;;;;;;;14.50;79.20;;;;;;5030009;28;20021;-68
2021/05/30 06:09:52;;;;;;;5.63;1.02;;;14.50;79.10;;;;;;5029730;28;19996;-68
2021/05/30 06:12:18;;;;;;;2.83;1.20;;;14.50;78.40;;;;;;5029821;28;20032;-68
2021/05/30 06:14:45;;;;;;;1.40;0.75;;;14.60;78.10;;;;;;5027957;28;20053;-67
2021/05/30 06:17:11;;;;;;;4.72;0.80;;;14.60;78.50;;;;;;5028023;28;20022;-66
2021/05/30 06:19:37;;;;;;;5.80;1.02;;;14.70;78.80;;;;;;5030061;28;20030;-67
2021/05/30 06:22:04;;;;;;;3.15;1.10;;;14.70;79.00;;;;;;5028102;28;20168;-68
2021/05/30 06:24:30;;;;;;;1.35;0.73;;;14.70;79.70;;;;;;5029433;28;20037;-68
2021/05/30 06:26:57;;;;;;;3.28;0.75;;;14.70;79.80;;;;;;5029736;28;20119;-69
2021/05/30 06:29:23;;;;;;;2.92;0.73;;;14.80;79.70;;;;;;5029212;28;20076;-68
2021/05/30 06:31:49;;;;;;;;;;;14.90;78.40;;;;;;5029681;28;20033;-68
2021/05/30 06:34:15;;;;;;;1.17;0.80;;;14.90;76.90;;;;;;5028160;28;20474;-70
2021/05/30 06:36:46;;;;;;;2.90;0.60;;;14.90;76.00;;;;;;5029085;28;20080;-68
2021/05/30 06:39:12;;;;;;;4.20;1.33;;;14.90;74.70;;;;;;5028026;28;20022;-70
2021/05/30 06:41:37;;;;;;;;;;;14.80;75.20;;;;;;5029387;28;20079;-68
2021/05/30 06:44:04;;;;;;;7.55;1.88;;;14.70;75.00;;;;;;5029349;28;19916;-70
2021/05/30 06:46:30;;;;;;;0.82;0.50;;;14.60;75.60;;;;;;5029645;28;20025;-69
2021/05/30 06:48:56;;;;;;;;;;;14.50;72.80;;;;;;5027818;28;20112;-69
2021/05/30 06:51:23;;;;;;;3.78;0.80;;;14.30;73.20;;;;;;5028694;28;19909;-69
2021/05/30 06:53:50;;;;;;;2.75;0.60;;;14.00;72.50;;;;;;5028540;28;20715;-69
2021/05/30 06:56:16;;;;;;;3.65;1.95;;;13.90;71.80;;;;;;5029043;28;20117;-69
2021/05/30 06:58:42;;;;;;;1.92;0.63;;;13.70;73.10;;;;;;5027457;28;20449;-68
2021/05/30 07:01:09;;;;;;;1.25;0.50;;;13.50;74.60;;;;;;5027495;28;20449;-69
2021/05/30 07:03:35;;;;;;;2.05;0.60;;;13.50;73.10;;;;;;5028961;28;20033;-69
2021/05/30 07:06:00;;;;;;;;;;;13.30;73.90;;;;;;5027746;28;20038;-68
2021/05/30 07:08:26;;;;;;;2.13;0.60;;;13.20;74.90;;;;;;5025971;28;19975;-70
2021/05/30 07:10:52;;;;;;;;;;;13.00;74.80;;;;;;5027247;28;20032;-68
2021/05/30 07:13:18;;;;;;;3.72;0.57;;;13.00;74.50;;;;;;5027343;28;19949;-68
2021/05/30 07:15:43;;;;;;;;;;;12.90;75.10;;;;;;5029464;28;20073;-67
2021/05/30 07:18:09;;;;;;;1.60;0.65;;;12.90;75.50;;;;;;5028283;28;19998;-67
2021/05/30 07:20:35;;;;;;;;;;;12.90;75.80;;;;;;5029027;28;20573;-68
2021/05/30 07:23:00;;;;;;;1.20;0.70;;;12.90;75.50;;;;;;5027743;28;19913;-68
2021/05/30 07:25:26;;;;;;;;;;;12.80;75.90;;;;;;5028913;28;20033;-67
2021/05/30 07:27:51;;;;;;;1.35;0.70;;;12.80;76.90;;;;;;5028223;28;19916;-68
2021/05/30 07:30:18;;;;;;;;;;;12.90;76.80;;;;;;5028655;28;20060;-68
2021/05/30 07:32:43;;;;;;;3.05;0.80;;;12.90;77.00;;;;;;5027140;28;19915;-69
2021/05/30 07:35:09;;;;;;;;;;;12.90;77.00;;;;;;5026883;28;20045;-68
2021/05/30 07:37:34;;;;;;;1.35;0.80;;;12.90;78.00;;;;;;5026299;28;19958;-68
2021/05/30 07:40:00;;;;;;;;;;;13.00;76.80;;;;;;5028718;28;20033;-68
2021/05/30 07:42:25;;;;;;;3.63;0.47;;;13.10;75.00;;;;;;5027827;28;20293;-69
2021/05/30 07:44:51;;;;;;;;;;;13.10;75.90;;;;;;5028294;28;20033;-68
2021/05/30 07:47:17;;;;;;;1.50;0.70;;;13.20;74.30;;;;;;5026801;28;19913;-68
2021/05/30 07:49:42;;;;;;;;;;;13.30;74.00;;;;;;5028802;28;20013;-68
2021/05/30 07:52:08;;;;;;;3.33;0.60;;;13.40;71.20;;;;;;5027554;28;20628;-68
2021/05/30 07:54:33;;;;;;;;;;;13.60;69.80;;;;;;5028108;28;20065;-68
2021/05/30 07:56:59;;;;;;;3.45;1.50;;;13.70;69.10;;;;;;5028021;28;19952;-68
2021/05/30 07:59:25;;;;;;;;;;;13.80;70.60;;;;;;5028343;28;20079;-67
2021/05/30 08:01:51;;;;;;;3.25;1.30;;;13.70;71.50;;;;;;5032986;28;19913;-68
2021/05/30 08:04:17;;;;;;;4.55;1.27;;;13.80;72.20;;;;;;5033295;28;20492;-68
2021/05/30 08:06:42;;;;;;;;;;;13.90;72.30;;;;;;5027397;28;20112;-68
2021/05/30 08:09:08;;;;;;;1.15;0.70;;;14.00;71.50;;;;;;5027874;28;19932;-68
2021/05/30 08:11:34;;;;;;;1.67;1.00;;;14.10;69.60;;;;;;5027528;28;20021;-68
2021/05/30 08:13:59;;;;;;;;;;;14.30;70.80;;;;;;5027777;28;20033;-68
2021/05/30 08:16:25;;;;;;;8.43;2.00;;;14.50;70.20;;;;;;5027518;28;20270;-68
2021/05/30 08:18:50;;;;;;;;;;;14.60;70.20;;;;;;5028066;28;20025;-68
2021/05/30 08:21:16;;;;;;;2.30;1.40;;;14.80;69.20;;;;;;5025802;28;19905;-67
2021/05/30 08:23:42;;;;;;;;;;;14.80;68.30;;;;;;5027733;28;20036;-68
2021/05/30 08:26:11;;;;;;;2.10;1.00;;;15.10;68.60;;;;;;5027472;28;19909;-67
2021/05/30 08:28:37;;;;;;;1.70;0.90;;;15.20;64.60;;;;;;5035205;28;20028;-68
2021/05/30 08:31:03;;;;;;;;;;;15.50;64.30;;;;;;5047487;28;20395;-67
2021/05/30 08:33:30;;;;;;;2.90;1.23;;;15.90;63.40;;;;;;5047153;28;19963;-68
2021/05/30 08:35:56;;;;;;;1.55;0.50;;;16.30;61.90;;;;;;5046170;28;20151;-68
2021/05/30 08:38:22;;;;;;;3.13;0.73;;;16.80;58.00;;;;;;5047309;28;20025;-67
2021/05/30 08:40:49;;;;;;;1.27;0.70;;;17.10;56.40;;;;;;5046977;28;20118;-68
2021/05/30 08:43:15;;;;;;;4.60;1.00;;;17.50;54.30;;;;;;5046527;28;20025;-68
2021/05/30 08:45:42;;;;;;;1.73;0.90;;;17.70;52.40;;;;;;5047126;28;20044;-68
2021/05/30 08:48:08;;;;;;;2.28;1.20;;;17.70;53.60;;;;;;5046891;28;20032;-68
2021/05/30 08:50:34;;;;;;;1.85;1.05;;;17.70;54.10;;;;;;5046356;28;20434;-67
2021/05/30 08:53:00;;;;;;;4.45;0.65;;;17.50;55.20;;;;;;5046682;28;20413;-67
2021/05/30 08:55:25;;;;;;;2.50;0.95;;;17.50;56.90;;;;;;5046515;28;20082;-68
2021/05/30 08:57:51;;;;;;;1.77;1.00;;;17.60;57.10;;;;;;5046031;28;20535;-67
2021/05/30 09:00:22;;;;;;;3.15;1.20;;;17.60;56.30;;;;;;5046550;28;20513;-67
2021/05/30 09:03:08;;;;;;;1.80;0.85;;;17.50;56.40;;;;;;5044708;28;20025;-65
2021/05/30 09:05:37;;;;;;;1.90;0.93;;;17.50;55.60;;;;;;5045763;28;20040;-65
2021/05/30 09:08:03;;;;;;;3.85;1.17;;;17.40;58.80;;;;;;5046608;28;20029;-65
2021/05/30 09:10:29;;;;;;;3.28;0.70;;;17.40;58.80;;;;;;5045206;28;20489;-68
2021/05/30 09:13:14;;;;;;;1.25;0.70;;;17.60;59.30;;;;;;5045788;28;20033;-68
2021/05/30 09:18:15;;;;;;;1.35;0.70;;;17.60;58.00;;;;;;5046705;28;20498;-68
2021/05/30 09:20:50;;;;;;;1.60;1.10;;;17.70;57.90;;;;;;5045764;28;20025;-67
2021/05/30 09:23:28;;;;;;;1.92;0.70;;;17.90;57.60;;;;;;5046304;28;20025;-67
2021/05/30 09:26:24;;;;;;;1.50;0.80;;;18.10;58.00;;;;;;5045083;28;20052;-67
2021/05/30 09:29:10;;;;;;;2.08;0.80;;;18.20;58.00;;;;;;5046076;28;20024;-66
2021/05/30 09:31:53;;;;;;;1.13;0.68;;;18.60;58.20;;;;;;5045726;28;20040;-67
2021/05/30 09:34:26;;;;;;;2.63;0.80;;;19.20;52.90;;;;;;5046163;28;20849;-67
2021/05/30 09:36:53;;;;;;;2.25;0.82;;;20.30;50.80;;;;;;5045239;28;20397;-67
2021/05/30 09:39:39;;;;;;;1.40;0.90;;;21.50;47.90;;;;;;5045754;28;20029;-67
2021/05/30 09:42:21;;;;;;;2.72;0.93;;;23.00;42.30;;;;;;5045938;28;20044;-67
2021/05/30 09:45:12;;;;;;;2.30;0.70;;;24.00;39.30;;;;;;5045462;28;20498;-68
2021/05/30 09:47:41;;;;;;;2.38;0.73;;;24.80;38.60;;;;;;5045842;28;20120;-67
2021/05/30 09:50:09;;;;;;;3.25;0.63;;;25.50;34.40;;;;;;5044428;28;20028;-67
2021/05/30 09:52:42;;;;;;;1.08;0.75;;;25.70;34.20;;;;;;5045916;28;20028;-68
2021/05/30 09:55:16;;;;;;;2.55;0.77;;;26.10;34.50;;;;;;5045698;28;20056;-67
2021/05/30 09:58:14;;;;;;;0.90;0.60;;;26.20;33.10;;;;;;5045744;28;20033;-66
2021/05/30 10:00:41;;;;;;;0.55;0.50;;;26.60;31.40;;;;;;5045506;28;20060;-67
2021/05/30 10:03:07;;;;;;;1.77;0.63;;;26.20;32.10;;;;;;5044538;28;20572;-67
2021/05/30 10:05:34;;;;;;;3.35;0.65;;;25.30;32.50;;;;;;5045732;28;20304;-67
2021/05/30 10:08:00;;;;;;;1.17;0.70;;;24.50;34.00;;;;;;5045550;28;20033;-67
2021/05/30 10:10:27;;;;;;;0.60;0.52;;;24.30;34.40;;;;;;5044743;28;20029;-66
2021/05/30 10:12:52;;;;;;;0.93;0.50;;;24.10;34.70;;;;;;5041623;28;20160;-67
2021/05/30 10:15:18;;;;;;;0.95;0.65;;;23.90;33.60;;;;;;5044836;28;20124;-66
2021/05/30 10:17:45;;;;;;;5.78;0.70;;;23.40;34.20;;;;;;5044277;28;20711;-65
2021/05/30 10:20:19;;;;;;;1.48;0.52;;;23.10;35.20;;;;;;5043809;28;20049;-66
2021/05/30 10:22:53;;;;;;;10.82;0.60;;;22.60;35.30;;;;;;5043420;28;20079;-66
2021/05/30 10:25:45;;;;;;;5.38;0.75;;;22.20;35.70;;;;;;5045121;28;20045;-66
2021/05/30 10:28:13;;;;;;;1.40;0.60;;;21.90;36.40;;;;;;5043358;28;20087;-65
2021/05/30 10:30:42;;;;;;;1.48;0.65;;;21.70;37.60;;;;;;5044675;28;20073;-66
2021/05/30 10:33:15;;;;;;;1.02;0.60;;;21.50;37.50;;;;;;5044038;28;20056;-65
2021/05/30 10:35:48;;;;;;;0.82;0.50;;;21.40;38.00;;;;;;5043839;28;20048;-66
2021/05/30 10:38:39;;;;;;;1.38;0.52;;;21.60;38.80;;;;;;5044698;28;20398;-65
2021/05/30 10:41:16;;;;;;;1.35;0.88;;;21.70;38.70;;;;;;5039308;28;20646;-66
2021/05/30 10:43:44;;;;;;;1.73;0.60;;;21.60;38.10;;;;;;5045413;28;20155;-65
2021/05/30 10:46:10;;;;;;;2.85;0.57;;;21.20;38.50;;;;;;5047956;28;20467;-66
2021/05/30 10:48:38;;;;;;;2.15;0.60;;;20.70;40.00;;;;;;5046811;28;20041;-64
2021/05/30 10:53:46;;;;;;;1.35;0.50;;;20.30;40.90;;;;;;5048310;28;20068;-65
2021/05/30 10:56:32;;;;;;;0.85;0.50;;;19.80;45.50;;;;;;5047584;28;20124;-65
2021/05/30 10:59:07;;;;;;;1.48;0.70;;;19.50;48.70;;;;;;5045733;28;20041;-66
2021/05/30 11:01:35;;;;;;;3.13;0.60;;;19.30;49.60;;;;;;5046275;28;20533;-65
2021/05/30 11:04:23;;;;;;;1.05;0.60;;;19.00;48.80;;;;;;5047202;28;20044;-65
2021/05/30 11:06:53;;;;;;;2.10;0.50;;;18.80;51.40;;;;;;5047672;28;20468;-64
2021/05/30 11:09:19;;;;;;;1.05;0.60;;;18.60;51.70;;;;;;5047474;28;20056;-65
2021/05/30 11:11:45;;;;;;;1.42;0.60;;;18.40;53.50;;;;;;5047571;28;20090;-65
2021/05/30 11:14:15;;;;;;;2.92;1.13;;;18.10;54.80;;;;;;5047519;28;20036;-64
2021/05/30 11:16:48;;;;;;;3.55;1.25;;;17.50;64.00;;;;;;5047643;28;20040;-64
2021/05/30 11:19:17;;;;;;;2.90;1.58;;;16.70;71.50;;;;;;5047572;28;20450;-68
2021/05/30 11:21:45;;;;;;;4.78;1.23;;;15.90;74.80;;;;;;5047210;28;20045;-65
2021/05/30 11:24:12;;;;;;;2.63;1.40;;;15.30;76.20;;;;;;5046925;28;20071;-66
2021/05/30 11:26:38;;;;;;;26.02;13.57;;;14.90;77.10;;;;;;5035161;28;20108;-66
2021/05/30 11:29:05;;;;;;;;;;;14.60;77.80;;;;;;5037054;28;20046;-66
2021/05/30 11:31:31;;;;;;;6.97;4.30;;;14.60;84.50;;;;;;5030356;28;19917;-69
2021/05/30 11:33:56;;;;;;;;;;;14.60;85.50;;;;;;5025997;28;20046;-66
2021/05/30 11:36:29;;;;;;;2.92;1.90;;;14.60;84.80;;;;;;5024430;28;19924;-65
2021/05/30 11:38:58;;;;;;;6.93;4.03;;;14.60;84.10;;;;;;5022150;28;20413;-66
2021/05/30 11:41:33;;;;;;;6.07;4.00;;;14.70;83.20;;;;;;5024937;28;20034;-65
2021/05/30 11:44:09;;;;;;;7.53;2.75;;;14.80;82.90;;;;;;5027370;28;20092;-66
2021/05/30 11:46:38;;;;;;;2.78;1.42;;;14.90;79.80;;;;;;5026820;28;20109;-66
2021/05/30 11:49:05;;;;;;;2.85;1.70;;;15.10;81.00;;;;;;5024505;28;20037;-66
2021/05/30 11:51:45;;;;;;;7.05;1.48;;;15.20;84.20;;;;;;5027170;28;20042;-65
2021/05/30 11:54:12;;;;;;;2.53;1.33;;;15.30;79.20;;;;;;5022589;28;20061;-66
2021/05/30 11:56:41;;;;;;;1.90;1.10;;;15.40;79.30;;;;;;5025708;28;20128;-71
2021/05/30 11:59:07;;;;;;;3.75;1.55;;;15.50;77.50;;;;;;5025663;28;20576;-66
2021/05/30 12:02:01;;;;;;;;;;;15.50;79.60;;;;;;5028300;28;20133;-67
2021/05/30 12:04:31;;;;;;;3.63;2.17;;;15.70;78.60;;;;;;5018572;28;19905;-67
2021/05/30 12:06:57;;;;;;;4.22;1.40;;;15.80;77.10;;;;;;5027607;28;20025;-67
2021/05/30 12:09:24;;;;;;;3.97;1.70;;;16.00;77.40;;;;;;5027737;28;20490;-67
2021/05/30 12:11:50;;;;;;;3.20;1.48;;;16.20;78.80;;;;;;5027705;28;20099;-66
2021/05/30 12:14:17;;;;;;;2.75;1.50;;;16.40;75.40;;;;;;5027632;28;20029;-67
2021/05/30 12:16:47;;;;;;;1.60;1.10;;;16.50;78.10;;;;;;5026230;28;20500;-69
2021/05/30 12:19:12;;;;;;;1.65;0.88;;;16.60;70.80;;;;;;5026372;28;20259;-68
2021/05/30 12:21:38;;;;;;;1.90;1.02;;;16.70;69.50;;;;;;5025359;28;20040;-68
2021/05/30 12:24:05;;;;;;;2.05;1.40;;;17.00;67.80;;;;;;5024813;28;20547;-68
2021/05/30 12:26:31;;;;;;;1.65;0.98;;;17.10;70.00;;;;;;5026649;28;20083;-68
2021/05/30 12:28:57;;;;;;;2.03;1.15;;;17.20;70.40;;;;;;5026395;28;20025;-69
2021/05/30 12:31:23;;;;;;;3.28;1.38;;;17.50;71.50;;;;;;5026060;28;20206;-69
2021/05/30 12:34:06;;;;;;;2.63;1.10;;;17.70;69.70;;;;;;5024739;28;20536;-69
2021/05/30 12:36:34;;;;;;;3.33;1.05;;;18.10;67.80;;;;;;5026096;28;20059;-68
2021/05/30 12:39:04;;;;;;;3.20;0.90;;;18.40;65.50;;;;;;5025712;28;20379;-68
2021/05/30 12:41:38;;;;;;;2.53;0.95;;;18.70;63.70;;;;;;5026959;28;20498;-68
2021/05/30 12:44:31;;;;;;;3.70;0.90;;;18.90;63.40;;;;;;5025138;28;20637;-68
2021/05/30 12:46:59;;;;;;;2.45;0.85;;;19.20;60.70;;;;;;5026696;28;20030;-68
2021/05/30 12:49:26;;;;;;;4.78;1.10;;;19.40;60.20;;;;;;5023894;28;20088;-69
2021/05/30 12:51:59;;;;;;;1.58;0.75;;;19.60;57.30;;;;;;5025896;28;20044;-68
2021/05/30 12:54:26;;;;;;;1.83;0.73;;;19.60;54.80;;;;;;5025406;28;20052;-68
2021/05/30 12:56:52;;;;;;;1.05;0.60;;;19.50;54.90;;;;;;5025577;28;20056;-69
2021/05/30 12:59:23;;;;;;;1.83;0.80;;;19.60;55.40;;;;;;5025881;28;20041;-70
2021/05/30 13:01:51;;;;;;;4.68;1.77;;;19.80;54.20;;;;;;5024204;28;20032;-69
2021/05/30 13:04:30;;;;;;;2.15;0.80;;;19.80;55.60;;;;;;5025637;28;20029;-68
2021/05/30 13:07:01;;;;;;;1.88;0.70;;;19.80;56.90;;;;;;5025958;28;20025;-69
2021/05/30 13:09:41;;;;;;;1.63;0.80;;;19.80;57.40;;;;;;5026177;28;20022;-69
2021/05/30 13:12:28;;;;;;;1.63;0.70;;;19.90;56.20;;;;;;5025259;28;20021;-69
2021/05/30 13:15:03;;;;;;;;;;;19.90;55.60;;;;;;5025690;28;20030;-69
2021/05/30 13:17:28;;;;;;;1.23;0.50;;;19.80;56.30;;;;;;5024689;28;19947;-69
2021/05/30 13:20:30;;;;;;;1.27;0.60;;;19.80;57.30;;;;;;5026336;28;20065;-68